createdAt,value
2022-08-22T00:02:00.371Z,28.10
2022-08-22T00:05:03.301Z,29.85
2022-08-22T00:10:33.367Z,28.23
2022-08-22T00:13:16.715Z,32.17
2022-08-22T00:15:53.206Z,34.88
2022-08-22T00:18:37.606Z,34.63
2022-08-22T00:21:30.471Z,37.22
2022-08-22T00:24:17.860Z,38.53
2022-08-22T00:27:23.708Z,36.13
2022-08-22T00:29:57.341Z,38.95
2022-08-22T00:32:39.551Z,37.53
2022-08-22T00:35:15.991Z,36.57
2022-08-22T00:38:15.883Z,39.47
2022-08-22T00:41:01.357Z,39.08
2022-08-22T00:44:22.995Z,39.92
2022-08-22T00:47:11.481Z,42.53
2022-08-22T00:50:16.360Z,41.88
2022-08-22T00:53:03.348Z,44.15
2022-08-22T00:56:08.455Z,45.03
2022-08-22T00:58:41.691Z,45.20
2022-08-22T01:01:12.912Z,47.85
2022-08-22T01:03:47.122Z,50.22
2022-08-22T01:06:49.368Z,43.47
2022-08-22T01:09:36.269Z,38.55
2022-08-22T01:12:13.035Z,35.13
2022-08-22T01:14:55.876Z,29.08
2022-08-22T01:20:11.542Z,26.08
2022-08-22T01:22:57.245Z,25.70
2022-08-22T01:26:17.129Z,27.48
2022-08-22T01:28:53.068Z,23.80
2022-08-22T01:31:41.186Z,24.70
2022-08-22T01:34:27.164Z,23.58
2022-08-22T01:37:12.516Z,22.52
2022-08-22T01:39:42.640Z,19.70
2022-08-22T01:42:48.183Z,24.20
2022-08-22T01:45:36.773Z,23.83
2022-08-22T01:48:20.449Z,23.75
2022-08-22T01:50:58.696Z,22.65
2022-08-22T01:53:44.444Z,23.63
2022-08-22T01:56:15.194Z,20.38
2022-08-22T01:58:47.142Z,26.60
2022-08-22T02:01:23.260Z,31.83
2022-08-22T02:04:16.658Z,33.35
2022-08-22T02:07:11.909Z,36.58
2022-08-22T02:09:52.615Z,35.30
2022-08-22T02:12:49.386Z,37.08
2022-08-22T02:15:16.558Z,45.03
2022-08-22T02:18:07.039Z,46.85
2022-08-22T02:20:43.807Z,50.22
2022-08-22T02:23:43.287Z,50.00
2022-08-22T02:26:16.973Z,51.00
2022-08-22T02:28:58.070Z,56.25
2022-08-22T02:31:44.220Z,57.13
2022-08-22T02:34:31.325Z,57.28
2022-08-22T02:37:05.334Z,56.80
2022-08-22T02:40:04.355Z,61.97
2022-08-22T02:42:55.730Z,52.67
2022-08-22T02:45:53.707Z,55.00
2022-08-22T02:49:03.942Z,50.08
2022-08-22T02:51:50.064Z,54.38
2022-08-22T02:54:31.512Z,55.00
2022-08-22T02:57:39.672Z,56.50
2022-08-22T03:00:31.891Z,60.10
2022-08-22T03:03:16.410Z,57.85
2022-08-22T03:05:43.675Z,55.03
2022-08-22T03:08:22.741Z,60.70
2022-08-22T03:10:56.641Z,57.05
2022-08-22T03:13:49.572Z,57.72
2022-08-22T03:16:34.104Z,57.65
2022-08-22T03:19:23.982Z,56.75
2022-08-22T03:22:02.366Z,58.83
2022-08-22T03:24:48.945Z,57.33
2022-08-22T03:27:32.704Z,55.03
2022-08-22T03:30:23.032Z,57.00
2022-08-22T03:32:50.429Z,57.83
2022-08-22T03:35:39.421Z,54.13
2022-08-22T03:38:40.541Z,57.58
2022-08-22T03:41:32.644Z,55.58
2022-08-22T03:44:38.124Z,53.17
2022-08-22T03:47:08.023Z,59.60
2022-08-22T03:50:01.662Z,57.55
2022-08-22T03:53:15.412Z,54.42
2022-08-22T03:56:14.557Z,59.03
2022-08-22T03:59:03.332Z,57.67
2022-08-22T04:01:51.849Z,57.33
2022-08-22T04:04:31.830Z,55.47
2022-08-22T04:07:36.863Z,54.78
2022-08-22T04:10:54.820Z,59.28
2022-08-22T04:13:43.536Z,58.55
2022-08-22T04:17:01.441Z,57.08
2022-08-22T04:19:45.531Z,57.13
2022-08-22T04:22:36.823Z,54.95
2022-08-22T04:25:14.566Z,56.97
2022-08-22T04:27:53.302Z,56.20
2022-08-22T04:30:26.021Z,54.08
2022-08-22T04:33:11.378Z,56.55
2022-08-22T04:35:50.740Z,53.30
2022-08-22T04:38:28.662Z,53.58
2022-08-22T04:41:20.644Z,57.53
2022-08-22T04:44:09.391Z,59.73
2022-08-22T04:46:45.616Z,59.28
2022-08-22T04:49:15.191Z,56.60
2022-08-22T04:51:46.791Z,60.28
2022-08-22T04:54:32.736Z,56.50
2022-08-22T04:57:54.083Z,57.08
2022-08-22T05:00:21.384Z,55.45
2022-08-22T05:02:52.841Z,58.10
2022-08-22T05:05:26.995Z,57.20
2022-08-22T05:08:02.990Z,59.75
2022-08-22T05:10:46.445Z,53.60
2022-08-22T05:13:24.398Z,57.45
2022-08-22T05:15:56.570Z,62.17
2022-08-22T05:18:29.801Z,60.97
2022-08-22T05:21:01.706Z,53.22
2022-08-22T05:23:43.692Z,63.33
2022-08-22T05:26:13.460Z,59.35
2022-08-22T05:28:56.552Z,61.85
2022-08-22T05:31:29.551Z,62.92
2022-08-22T05:34:06.268Z,61.00
2022-08-22T05:36:43.088Z,64.70
2022-08-22T05:39:17.048Z,65.40
2022-08-22T05:41:45.203Z,63.53
2022-08-22T05:44:24.794Z,66.55
2022-08-22T05:47:01.143Z,63.92
2022-08-22T05:49:39.453Z,64.97
2022-08-22T05:52:06.886Z,63.33
2022-08-22T05:54:55.694Z,59.30
2022-08-22T05:57:22.836Z,63.08
2022-08-22T05:59:59.198Z,59.78
2022-08-22T06:02:56.438Z,59.03
2022-08-22T06:05:28.421Z,57.58
2022-08-22T06:08:04.539Z,60.15
2022-08-22T06:10:43.064Z,55.88
2022-08-22T06:13:16.295Z,53.78
2022-08-22T06:16:06.465Z,59.50
2022-08-22T06:18:39.220Z,55.33
2022-08-22T06:21:21.157Z,51.53
2022-08-22T06:23:56.833Z,51.50
2022-08-22T06:26:26.814Z,49.85
2022-08-22T06:28:57.907Z,53.28
2022-08-22T06:31:46.990Z,54.75
2022-08-22T06:34:31.331Z,51.75
2022-08-22T06:37:04.487Z,53.13
2022-08-22T06:39:38.796Z,52.28
2022-08-22T06:42:22.899Z,54.00
2022-08-22T06:44:54.708Z,51.13
2022-08-22T06:47:30.492Z,51.17
2022-08-22T06:50:13.565Z,50.10
2022-08-22T06:52:52.345Z,47.08
2022-08-22T06:55:21.579Z,50.00
2022-08-22T06:58:05.686Z,49.88
2022-08-22T07:00:35.636Z,48.58
2022-08-22T07:03:30.248Z,47.33
2022-08-22T07:05:58.068Z,47.72
2022-08-22T07:08:28.811Z,49.03
2022-08-22T07:11:04.445Z,45.72
2022-08-22T07:13:33.777Z,45.20
2022-08-22T07:16:07.580Z,48.10
2022-08-22T07:18:35.119Z,49.22
2022-08-22T07:21:04.982Z,47.95
2022-08-22T07:23:44.656Z,50.75
2022-08-22T07:26:40.452Z,47.70
2022-08-22T07:29:28.104Z,46.75
2022-08-22T07:32:06.131Z,48.60
2022-08-22T07:34:39.553Z,47.70
2022-08-22T07:37:19.603Z,47.72
2022-08-22T07:40:18.942Z,44.92
2022-08-22T07:42:52.473Z,43.50
2022-08-22T07:45:31.672Z,46.85
2022-08-22T07:48:10.767Z,46.17
2022-08-22T07:50:58.713Z,45.45
2022-08-22T07:53:39.442Z,47.53
2022-08-22T07:56:12.782Z,44.78
2022-08-22T07:58:43.148Z,44.70
2022-08-22T08:01:15.984Z,48.08
2022-08-22T08:03:49.844Z,46.55
2022-08-22T08:06:17.439Z,43.45
2022-08-22T08:08:45.257Z,45.67
2022-08-22T08:11:17.225Z,44.25
2022-08-22T08:13:49.757Z,46.17
2022-08-22T08:16:19.850Z,45.55
2022-08-22T08:18:50.100Z,45.75
2022-08-22T08:21:41.793Z,45.38
2022-08-22T08:24:14.684Z,45.63
2022-08-22T08:27:08.552Z,44.17
2022-08-22T08:29:37.289Z,44.90
2022-08-22T08:32:10.764Z,45.92
2022-08-22T08:34:40.234Z,47.67
2022-08-22T08:37:37.008Z,45.78
2022-08-22T08:40:18.347Z,46.65
2022-08-22T08:43:27.549Z,44.67
2022-08-22T08:46:16.120Z,51.13
2022-08-22T08:49:01.461Z,45.63
2022-08-22T08:51:45.661Z,46.72
2022-08-22T08:54:40.797Z,47.17
2022-08-22T08:57:15.512Z,45.28
2022-08-22T09:00:14.839Z,46.75
2022-08-22T09:02:58.897Z,45.80
2022-08-22T09:05:26.045Z,45.05
2022-08-22T09:07:58.689Z,43.40
2022-08-22T09:10:55.203Z,43.13
2022-08-22T09:13:29.859Z,46.33
2022-08-22T09:16:22.708Z,39.70
2022-08-22T09:19:01.400Z,42.00
2022-08-22T09:21:59.809Z,38.10
2022-08-22T09:25:06.133Z,36.65
2022-08-22T09:27:45.950Z,37.92
2022-08-22T09:33:17.919Z,38.20
2022-08-22T09:36:13.353Z,39.10
2022-08-22T09:39:14.221Z,40.33
2022-08-22T09:41:58.884Z,37.70
2022-08-22T09:45:11.585Z,37.00
2022-08-22T09:50:30.888Z,37.70
2022-08-22T09:53:15.405Z,38.25
2022-08-22T09:56:02.049Z,34.10
2022-08-22T09:59:01.499Z,31.58
2022-08-22T10:02:15.748Z,31.48
2022-08-22T10:05:40.808Z,32.15
2022-08-22T10:08:13.186Z,27.30
2022-08-22T10:11:08.302Z,30.73
2022-08-22T10:14:00.931Z,29.20
2022-08-22T10:16:31.904Z,28.35
2022-08-22T10:19:19.040Z,27.25
2022-08-22T10:22:06.118Z,27.63
2022-08-22T10:24:52.424Z,23.33
2022-08-22T10:27:31.783Z,25.60
2022-08-22T10:30:04.677Z,24.50
2022-08-22T10:32:42.910Z,23.02
2022-08-22T10:35:21.231Z,23.75
2022-08-22T10:38:06.394Z,21.90
2022-08-22T10:41:05.446Z,19.02
2022-08-22T10:43:56.568Z,16.58
2022-08-22T10:46:31.736Z,15.30
2022-08-22T10:49:07.868Z,13.35
2022-08-22T10:51:42.660Z,12.07
2022-08-22T10:54:19.923Z,10.55
2022-08-22T10:57:12.269Z,10.02
2022-08-22T11:00:33.016Z,9.10
2022-08-22T11:03:23.413Z,10.98
2022-08-22T11:06:00.372Z,11.13
2022-08-22T11:08:54.563Z,12.63
2022-08-22T11:11:50.344Z,13.45
2022-08-22T11:14:45.509Z,11.90
2022-08-22T11:17:31.110Z,12.70
2022-08-22T11:20:19.602Z,8.45
2022-08-22T11:23:07.476Z,9.52
2022-08-22T11:26:14.586Z,7.65
2022-08-22T11:29:25.278Z,10.45
2022-08-22T11:32:05.939Z,13.40
2022-08-22T11:34:44.807Z,12.85
2022-08-22T11:37:42.873Z,15.10
2022-08-22T11:40:33.650Z,12.65
2022-08-22T11:43:08.033Z,12.35
2022-08-22T11:45:49.312Z,15.63
2022-08-22T11:48:32.783Z,16.40
2022-08-22T11:51:25.050Z,16.00
2022-08-22T11:54:31.742Z,16.00
2022-08-22T11:57:10.345Z,15.10
2022-08-22T12:00:23.291Z,17.27
2022-08-22T12:03:16.542Z,14.38
2022-08-22T12:05:48.710Z,12.77
2022-08-22T12:08:31.345Z,12.68
2022-08-22T12:11:03.708Z,12.27
2022-08-22T12:14:03.994Z,12.32
2022-08-22T12:16:42.800Z,9.38
2022-08-22T12:19:32.960Z,8.45
2022-08-22T12:22:03.382Z,8.95
2022-08-22T12:24:40.874Z,7.00
2022-08-22T12:27:36.343Z,4.90
2022-08-22T12:30:42.837Z,5.68
2022-08-22T12:33:31.702Z,4.03
2022-08-22T12:36:06.447Z,4.43
2022-08-22T12:39:01.500Z,3.40
2022-08-22T12:41:46.750Z,3.08
2022-08-22T12:44:55.328Z,3.40
2022-08-22T12:47:57.197Z,3.78
2022-08-22T12:50:27.258Z,2.97
2022-08-22T12:53:21.689Z,3.47
2022-08-22T12:56:06.788Z,3.40
2022-08-22T12:58:58.929Z,3.45
2022-08-22T13:01:34.270Z,3.03
2022-08-22T13:04:08.835Z,3.10
2022-08-22T13:06:36.196Z,2.97
2022-08-22T13:09:22.856Z,3.38
2022-08-22T13:12:02.476Z,3.20
2022-08-22T13:14:32.158Z,3.50
2022-08-22T13:17:10.248Z,3.40
2022-08-22T13:20:10.496Z,3.40
2022-08-22T13:22:45.404Z,4.10
2022-08-22T13:26:11.552Z,3.90
2022-08-22T13:28:56.877Z,3.97
2022-08-22T13:31:39.305Z,4.17
2022-08-22T13:34:12.525Z,3.70
2022-08-22T13:36:51.632Z,3.60
2022-08-22T13:39:27.094Z,3.22
2022-08-22T13:41:58.189Z,3.55
2022-08-22T13:44:36.828Z,3.40
2022-08-22T13:47:31.762Z,4.38
2022-08-22T13:50:37.517Z,4.03
2022-08-22T13:53:41.633Z,3.60
2022-08-22T13:56:21.420Z,4.00
2022-08-22T13:58:55.027Z,3.75
2022-08-22T14:01:40.858Z,4.45
2022-08-22T14:04:33.547Z,4.03
2022-08-22T14:07:04.546Z,3.95
2022-08-22T14:09:51.285Z,4.25
2022-08-22T14:12:24.688Z,4.82
2022-08-22T14:15:02.549Z,4.55
2022-08-22T14:17:43.051Z,4.65
2022-08-22T14:20:33.524Z,4.30
2022-08-22T14:23:29.351Z,4.82
2022-08-22T14:25:59.261Z,4.30
2022-08-22T14:28:33.975Z,4.70
2022-08-22T14:34:39.073Z,3.80
2022-08-22T14:37:15.584Z,4.30
2022-08-22T14:39:49.213Z,3.28
2022-08-22T14:42:26.562Z,3.00
2022-08-22T14:45:18.681Z,3.65
2022-08-22T14:48:29.464Z,3.50
2022-08-22T14:51:05.986Z,3.47
2022-08-22T14:53:40.476Z,3.30
2022-08-22T14:56:24.203Z,3.47
2022-08-22T14:59:03.007Z,3.30
2022-08-22T15:01:35.005Z,3.50
2022-08-22T15:04:11.675Z,3.17
2022-08-22T15:06:48.187Z,3.25
2022-08-22T15:09:56.100Z,3.40
2022-08-22T15:12:31.471Z,3.30
2022-08-22T15:15:01.844Z,3.10
2022-08-22T15:17:37.451Z,3.50
2022-08-22T15:20:11.729Z,3.50
2022-08-22T15:22:45.521Z,2.97
2022-08-22T15:25:22.268Z,3.30
2022-08-22T15:28:14.412Z,3.30
2022-08-22T15:31:03.720Z,2.83
2022-08-22T15:33:34.240Z,2.83
2022-08-22T15:36:27.990Z,3.28
2022-08-22T15:39:35.098Z,2.95
2022-08-22T15:42:05.544Z,3.08
2022-08-22T15:44:40.276Z,3.33
2022-08-22T15:47:35.022Z,2.90
2022-08-22T15:50:29.715Z,2.65
2022-08-22T15:53:20.758Z,3.88
2022-08-22T15:56:11.082Z,4.20
2022-08-22T15:58:48.615Z,3.20
2022-08-22T16:01:23.063Z,3.97
2022-08-22T16:04:00.832Z,3.50
2022-08-22T16:06:50.629Z,3.83
2022-08-22T16:09:43.495Z,3.55
2022-08-22T16:12:24.847Z,3.50
2022-08-22T16:14:52.608Z,3.63
2022-08-22T16:17:28.532Z,3.88
2022-08-22T16:20:09.968Z,3.72
2022-08-22T16:22:58.841Z,3.67
2022-08-22T16:25:47.582Z,3.70
2022-08-22T16:28:56.260Z,3.53
2022-08-22T16:31:21.830Z,3.80
2022-08-22T16:33:49.191Z,3.65
2022-08-22T16:36:39.032Z,4.18
2022-08-22T16:39:21.494Z,3.53
2022-08-22T16:42:23.481Z,3.72
2022-08-22T16:45:08.453Z,4.13
2022-08-22T16:47:40.929Z,3.50
2022-08-22T16:50:22.433Z,3.85
2022-08-22T16:53:07.778Z,4.40
2022-08-22T16:55:39.462Z,4.60
2022-08-22T16:58:57.098Z,4.53
2022-08-22T17:02:05.263Z,3.97
2022-08-22T17:04:32.446Z,4.30
2022-08-22T17:07:34.640Z,4.68
2022-08-22T17:10:20.005Z,4.57
2022-08-22T17:13:02.933Z,5.38
2022-08-22T17:15:39.914Z,5.00
2022-08-22T17:18:44.713Z,5.53
2022-08-22T17:21:25.889Z,5.50
2022-08-22T17:24:34.103Z,6.10
2022-08-22T17:27:30.302Z,5.20
2022-08-22T17:30:02.865Z,4.97
2022-08-22T17:32:37.791Z,5.40
2022-08-22T17:35:25.042Z,5.30
2022-08-22T17:38:13.812Z,5.38
2022-08-22T17:41:06.898Z,4.97
2022-08-22T17:44:01.171Z,4.60
2022-08-22T17:46:42.956Z,4.80
2022-08-22T17:49:20.316Z,4.70
2022-08-22T17:51:55.683Z,4.55
2022-08-22T17:54:49.824Z,4.53
2022-08-22T17:57:38.970Z,4.30
2022-08-22T18:00:48.633Z,4.65
2022-08-22T18:03:45.097Z,4.28
2022-08-22T18:06:23.911Z,4.88
2022-08-22T18:09:19.077Z,4.53
2022-08-22T18:12:17.753Z,3.97
2022-08-22T18:15:02.347Z,4.70
2022-08-22T18:17:44.337Z,4.05
2022-08-22T18:20:45.740Z,4.15
2022-08-22T18:23:36.197Z,4.10
2022-08-22T18:26:27.173Z,4.80
2022-08-22T18:29:00.458Z,4.88
2022-08-22T18:31:47.944Z,4.53
2022-08-22T18:34:38.284Z,5.30
2022-08-22T18:37:41.587Z,4.10
2022-08-22T18:40:22.212Z,4.32
2022-08-22T18:42:54.513Z,4.70
2022-08-22T18:45:51.102Z,4.75
2022-08-22T18:48:49.465Z,4.53
2022-08-22T18:51:28.988Z,4.60
2022-08-22T18:54:05.039Z,4.60
2022-08-22T18:56:34.286Z,4.57
2022-08-22T18:59:20.188Z,4.88
2022-08-22T19:02:10.533Z,4.82
2022-08-22T19:04:53.536Z,4.70
2022-08-22T19:08:08.011Z,4.65
2022-08-22T19:10:50.116Z,4.70
2022-08-22T19:13:25.436Z,5.10
2022-08-22T19:16:11.556Z,5.05
2022-08-22T19:19:03.419Z,5.82
2022-08-22T19:21:52.545Z,6.03
2022-08-22T19:24:29.912Z,5.70
2022-08-22T19:27:11.671Z,6.55
2022-08-22T19:29:55.394Z,6.20
2022-08-22T19:32:55.034Z,6.10
2022-08-22T19:35:40.905Z,6.00
2022-08-22T19:38:09.800Z,6.45
2022-08-22T19:42:02.044Z,6.80
2022-08-22T19:44:22.940Z,7.05
2022-08-22T19:47:39.721Z,6.88
2022-08-22T19:50:21.428Z,7.63
2022-08-22T19:53:27.798Z,7.38
2022-08-22T19:56:42.143Z,6.88
2022-08-22T20:00:33.621Z,7.00
2022-08-22T20:03:02.296Z,7.40
2022-08-22T20:05:56.595Z,7.38
2022-08-22T20:08:46.159Z,8.38
2022-08-22T20:11:47.297Z,7.70
2022-08-22T20:14:51.277Z,8.02
2022-08-22T20:17:30.754Z,7.60
2022-08-22T20:20:30.608Z,8.02
2022-08-22T20:23:06.821Z,8.00
2022-08-22T20:26:15.619Z,8.80
2022-08-22T20:29:00.089Z,8.95
2022-08-22T20:32:36.308Z,9.00
2022-08-22T20:40:55.217Z,9.60
2022-08-22T20:44:25.959Z,10.23
2022-08-22T20:47:04.788Z,10.27
2022-08-22T20:49:56.232Z,10.73
2022-08-22T20:52:33.360Z,11.55
2022-08-22T20:56:05.302Z,11.50
2022-08-22T20:58:38.644Z,11.02
2022-08-22T21:01:12.202Z,11.23
2022-08-22T21:04:24.575Z,11.98
2022-08-22T21:07:05.567Z,12.38
2022-08-22T21:09:51.726Z,11.45
2022-08-22T21:12:50.518Z,11.82
2022-08-22T21:15:31.338Z,12.48
2022-08-22T21:18:02.593Z,11.95
2022-08-22T21:20:34.307Z,12.85
2022-08-22T21:23:11.432Z,12.97
2022-08-22T21:26:11.030Z,14.70
2022-08-22T21:29:22.025Z,15.75
2022-08-22T21:36:50.848Z,17.75
2022-08-22T21:39:44.066Z,17.60
2022-08-22T21:45:55.678Z,17.52
2022-08-22T21:48:44.309Z,17.77
2022-08-22T21:51:44.028Z,17.60
2022-08-22T21:54:22.690Z,19.50
2022-08-22T21:56:53.080Z,18.88
2022-08-22T21:59:24.952Z,19.08
2022-08-22T22:01:55.550Z,17.58
2022-08-22T22:04:25.228Z,20.33
2022-08-22T22:06:52.443Z,19.77
2022-08-22T22:09:25.790Z,19.77
2022-08-22T22:11:52.994Z,19.25
2022-08-22T22:14:20.358Z,19.45
2022-08-22T22:16:47.560Z,19.23
2022-08-22T22:19:15.276Z,20.30
2022-08-22T22:21:42.404Z,18.50
2022-08-22T22:24:09.613Z,20.30
2022-08-22T22:26:36.881Z,20.08
2022-08-22T22:29:04.248Z,19.90
2022-08-22T22:31:31.804Z,19.98
2022-08-22T22:34:01.193Z,18.10
2022-08-22T22:36:28.700Z,18.63
2022-08-22T22:38:55.929Z,17.92
2022-08-22T22:41:26.028Z,18.25
2022-08-22T22:43:54.528Z,19.60
2022-08-22T22:46:24.720Z,18.70
2022-08-22T22:48:53.129Z,19.00
2022-08-22T22:51:20.522Z,19.45
2022-08-22T22:53:47.958Z,19.02
2022-08-22T22:56:21.510Z,19.05
2022-08-22T22:59:00.780Z,18.90
2022-08-22T23:01:38.593Z,19.15
2022-08-22T23:04:08.298Z,18.58
2022-08-22T23:06:35.588Z,18.13
2022-08-22T23:09:03.269Z,19.17
2022-08-22T23:11:31.349Z,18.58
2022-08-22T23:13:58.551Z,18.73
2022-08-22T23:16:28.862Z,19.15
2022-08-22T23:18:56.475Z,18.95
2022-08-22T23:21:27.855Z,17.13
2022-08-22T23:23:59.551Z,18.05
2022-08-22T23:26:28.360Z,17.30
2022-08-22T23:28:56.744Z,17.65
2022-08-22T23:31:34.563Z,19.05
2022-08-22T23:34:33.212Z,20.90
2022-08-22T23:37:02.479Z,19.40
2022-08-22T23:39:35.634Z,18.77
2022-08-22T23:42:02.889Z,21.08
2022-08-22T23:44:33.306Z,21.02
2022-08-22T23:47:01.595Z,20.23
2022-08-22T23:49:29.989Z,19.17
2022-08-22T23:51:58.105Z,19.50
2022-08-22T23:54:25.721Z,18.45
2022-08-22T23:56:57.864Z,19.10
2022-08-22T23:59:30.651Z,18.85
